createdAt,value
2018-06-02T00:00:29.703Z,4.63
2018-06-02T00:02:58.275Z,5.47
2018-06-02T00:05:26.825Z,4.77
2018-06-02T00:07:55.379Z,5.33
2018-06-02T00:10:23.938Z,5.50
2018-06-02T00:12:52.487Z,5.00
2018-06-02T00:15:21.031Z,5.67
2018-06-02T00:17:49.586Z,5.47
2018-06-02T00:20:18.139Z,5.70
2018-06-02T00:22:46.682Z,5.47
2018-06-02T00:25:15.236Z,6.00
2018-06-02T00:27:43.779Z,5.90
2018-06-02T00:30:12.363Z,6.13
2018-06-02T00:32:40.926Z,5.30
2018-06-02T00:35:09.483Z,6.10
2018-06-02T00:37:38.069Z,5.80
2018-06-02T00:40:06.623Z,5.70
2018-06-02T00:42:35.187Z,7.10
2018-06-02T00:45:03.387Z,6.10
2018-06-02T00:47:31.952Z,7.00
2018-06-02T00:50:00.504Z,6.57
2018-06-02T00:52:29.053Z,6.10
2018-06-02T00:55:09.273Z,6.40
2018-06-02T00:57:37.876Z,6.60
2018-06-02T01:00:07.444Z,5.70
2018-06-02T01:02:35.998Z,7.40
2018-06-02T01:05:04.206Z,6.13
2018-06-02T01:07:32.789Z,7.47
2018-06-02T01:10:01.343Z,7.10
2018-06-02T01:12:29.937Z,7.50
2018-06-02T01:14:58.535Z,7.40
2018-06-02T01:17:27.127Z,8.07
2018-06-02T01:19:55.691Z,7.93
2018-06-02T01:22:24.250Z,8.57
2018-06-02T01:24:52.843Z,8.30
2018-06-02T01:27:21.407Z,8.50
2018-06-02T01:29:49.961Z,8.77
2018-06-02T01:32:18.580Z,8.27
2018-06-02T01:34:47.134Z,7.83
2018-06-02T01:37:15.744Z,8.30
2018-06-02T01:39:44.303Z,7.37
2018-06-02T01:42:12.855Z,7.40
2018-06-02T01:44:41.416Z,7.70
2018-06-02T01:47:10.000Z,7.33
2018-06-02T01:49:38.549Z,6.73
2018-06-02T01:52:07.130Z,8.43
2018-06-02T01:54:35.678Z,7.53
2018-06-02T01:57:04.303Z,7.83
2018-06-02T01:59:32.842Z,6.77
2018-06-02T02:02:01.395Z,7.00
2018-06-02T02:04:29.956Z,6.97
2018-06-02T02:06:58.525Z,6.30
2018-06-02T02:09:27.078Z,6.63
2018-06-02T02:11:55.650Z,6.63
2018-06-02T02:14:24.215Z,6.70
2018-06-02T02:16:52.770Z,6.47
2018-06-02T02:19:21.328Z,6.20
2018-06-02T02:21:49.892Z,5.97
2018-06-02T02:24:18.447Z,5.10
2018-06-02T02:26:46.995Z,6.40
2018-06-02T02:29:15.589Z,5.70
2018-06-02T02:31:44.156Z,6.07
2018-06-02T02:34:12.723Z,6.30
2018-06-02T02:36:41.284Z,5.73
2018-06-02T02:39:09.830Z,5.93
2018-06-02T02:41:38.415Z,6.07
2018-06-02T02:44:06.991Z,5.77
2018-06-02T02:46:35.592Z,5.53
2018-06-02T02:49:04.207Z,5.70
2018-06-02T02:51:32.759Z,6.00
2018-06-02T02:54:01.304Z,5.93
2018-06-02T02:56:29.873Z,5.93
2018-06-02T02:58:58.486Z,6.20
2018-06-02T03:01:27.047Z,6.47
2018-06-02T03:03:55.606Z,7.10
2018-06-02T03:06:24.168Z,7.00
2018-06-02T03:08:52.734Z,7.00
2018-06-02T03:11:21.336Z,6.93
2018-06-02T03:13:49.897Z,6.10
2018-06-02T03:16:18.462Z,5.60
2018-06-02T03:18:47.018Z,6.47
2018-06-02T03:21:15.611Z,6.50
2018-06-02T03:23:44.175Z,5.40
2018-06-02T03:26:12.727Z,5.67
2018-06-02T03:28:41.325Z,6.13
2018-06-02T03:31:10.047Z,4.87
2018-06-02T03:33:38.673Z,5.40
2018-06-02T03:36:07.234Z,5.60
2018-06-02T03:38:35.775Z,6.13
2018-06-02T03:41:04.324Z,6.63
2018-06-02T03:43:32.935Z,5.97
2018-06-02T03:46:01.498Z,5.20
2018-06-02T03:48:29.731Z,5.83
2018-06-02T03:50:58.561Z,5.67
2018-06-02T03:53:27.149Z,5.23
2018-06-02T03:55:55.706Z,5.20
2018-06-02T03:58:24.250Z,5.60
2018-06-02T04:00:52.799Z,5.87
2018-06-02T04:03:21.346Z,6.33
2018-06-02T04:05:49.904Z,5.57
2018-06-02T04:08:18.536Z,5.07
2018-06-02T04:10:47.090Z,5.67
2018-06-02T04:13:15.658Z,5.47
2018-06-02T04:15:44.210Z,6.10
2018-06-02T04:18:12.759Z,5.20
2018-06-02T04:20:41.342Z,5.03
2018-06-02T04:23:09.889Z,5.27
2018-06-02T04:25:38.451Z,4.93
2018-06-02T04:28:07.002Z,5.10
2018-06-02T04:30:35.604Z,5.10
2018-06-02T04:33:04.180Z,4.70
2018-06-02T04:35:32.744Z,4.83
2018-06-02T04:38:01.292Z,5.37
2018-06-02T04:40:29.846Z,5.27
2018-06-02T04:42:58.390Z,5.17
2018-06-02T04:45:26.944Z,5.17
2018-06-02T04:47:55.536Z,4.97
2018-06-02T04:50:24.102Z,5.30
2018-06-02T04:52:52.650Z,5.37
2018-06-02T04:55:21.201Z,6.10
2018-06-02T04:57:49.754Z,5.90
2018-06-02T05:00:18.302Z,5.37
2018-06-02T05:02:47.523Z,5.37
2018-06-02T05:05:16.077Z,6.60
2018-06-02T05:07:44.639Z,6.47
2018-06-02T05:10:13.178Z,7.33
2018-06-02T05:12:41.731Z,6.67
2018-06-02T05:15:10.381Z,6.50
2018-06-02T05:17:39.096Z,5.77
2018-06-02T05:20:07.656Z,6.50
2018-06-02T05:22:36.205Z,5.90
2018-06-02T05:25:04.786Z,6.43
2018-06-02T05:27:33.349Z,5.60
2018-06-02T05:30:01.919Z,5.10
2018-06-02T05:32:30.487Z,5.43
2018-06-02T05:34:59.039Z,4.93
2018-06-02T05:37:27.631Z,6.00
2018-06-02T05:39:56.179Z,5.50
2018-06-02T05:42:24.728Z,4.93
2018-06-02T05:44:53.286Z,5.43
2018-06-02T05:47:21.843Z,5.77
2018-06-02T05:49:50.428Z,4.77
2018-06-02T05:52:18.989Z,4.10
2018-06-02T05:54:47.587Z,4.33
2018-06-02T05:57:17.110Z,4.47
2018-06-02T05:59:45.727Z,4.60
2018-06-02T06:02:17.716Z,5.03
2018-06-02T06:04:46.197Z,4.80
2018-06-02T06:07:15.084Z,4.83
2018-06-02T06:09:43.923Z,4.40
2018-06-02T06:12:12.481Z,4.40
2018-06-02T06:14:41.035Z,5.13
2018-06-02T06:17:09.635Z,4.57
2018-06-02T06:19:38.300Z,4.10
2018-06-02T06:22:07.012Z,4.20
2018-06-02T06:24:35.574Z,4.80
2018-06-02T06:27:04.133Z,4.87
2018-06-02T06:29:32.772Z,4.87
2018-06-02T06:32:01.336Z,4.37
2018-06-02T06:34:29.887Z,4.87
2018-06-02T06:36:58.473Z,4.63
2018-06-02T06:39:27.028Z,4.93
2018-06-02T06:41:55.594Z,5.20
2018-06-02T06:44:24.187Z,4.77
2018-06-02T06:46:52.892Z,4.90
2018-06-02T06:49:22.436Z,4.67
2018-06-02T06:51:51.019Z,4.90
2018-06-02T06:54:19.575Z,5.13
2018-06-02T06:56:48.179Z,4.57
2018-06-02T06:59:16.727Z,4.10
2018-06-02T07:01:45.282Z,4.97
2018-06-02T07:04:15.112Z,4.90
2018-06-02T07:06:43.678Z,3.90
2018-06-02T07:09:12.237Z,4.63
2018-06-02T07:11:40.868Z,4.47
2018-06-02T07:14:09.462Z,4.80
2018-06-02T07:16:38.080Z,4.63
2018-06-02T07:19:07.886Z,4.57
2018-06-02T07:21:36.581Z,5.43
2018-06-02T07:24:10.685Z,4.53
2018-06-02T07:26:39.422Z,5.37
2018-06-02T07:29:07.980Z,4.97
2018-06-02T07:31:36.537Z,8.93
2018-06-02T07:34:05.092Z,6.33
2018-06-02T07:36:33.642Z,4.63
2018-06-02T07:39:02.230Z,5.00
2018-06-02T07:41:30.798Z,5.00
2018-06-02T07:43:59.344Z,5.37
2018-06-02T07:46:27.899Z,6.57
2018-06-02T07:48:56.463Z,5.27
2018-06-02T07:51:25.097Z,5.03
2018-06-02T07:53:53.395Z,5.17
2018-06-02T07:56:21.950Z,5.10
2018-06-02T07:58:50.501Z,4.47
2018-06-02T08:01:19.052Z,4.63
2018-06-02T08:03:47.664Z,5.17
2018-06-02T08:06:16.241Z,4.73
2018-06-02T08:08:44.817Z,5.30
2018-06-02T08:11:13.549Z,6.40
2018-06-02T08:13:42.099Z,5.60
2018-06-02T08:16:10.688Z,5.07
2018-06-02T08:18:39.303Z,4.93
2018-06-02T08:21:07.918Z,4.77
2018-06-02T08:23:36.483Z,5.33
2018-06-02T08:26:04.459Z,4.90
2018-06-02T08:28:33.020Z,4.60
2018-06-02T08:31:01.582Z,4.63
2018-06-02T08:33:30.209Z,4.43
2018-06-02T08:35:58.899Z,4.60
2018-06-02T08:38:27.460Z,5.80
2018-06-02T08:40:56.047Z,5.07
2018-06-02T08:43:24.644Z,5.00
2018-06-02T08:45:53.207Z,4.93
2018-06-02T08:48:21.761Z,4.80
2018-06-02T08:50:50.311Z,5.03
2018-06-02T08:53:18.854Z,4.73
2018-06-02T08:55:47.404Z,4.33
2018-06-02T08:58:15.976Z,4.87
2018-06-02T09:00:44.530Z,5.10
2018-06-02T09:03:13.131Z,4.80
2018-06-02T09:05:41.680Z,4.83
2018-06-02T09:08:10.235Z,5.60
2018-06-02T09:10:38.787Z,5.20
2018-06-02T09:13:07.332Z,5.40
2018-06-02T09:15:35.919Z,6.53
2018-06-02T09:18:04.680Z,6.60
2018-06-02T09:20:33.247Z,5.00
2018-06-02T09:23:01.796Z,4.53
2018-06-02T09:25:30.375Z,4.97
2018-06-02T09:27:58.988Z,4.73
2018-06-02T09:30:27.758Z,4.77
2018-06-02T09:32:56.067Z,5.33
2018-06-02T09:35:24.674Z,5.27
2018-06-02T09:37:53.225Z,4.97
2018-06-02T09:40:21.784Z,4.53
2018-06-02T09:42:50.388Z,4.53
2018-06-02T09:45:18.959Z,4.40
2018-06-02T09:47:47.178Z,5.10
2018-06-02T09:50:15.930Z,4.20
2018-06-02T09:52:44.535Z,4.67
2018-06-02T09:55:13.091Z,4.60
2018-06-02T09:57:41.728Z,4.67
2018-06-02T10:00:10.496Z,4.50
2018-06-02T10:02:39.087Z,3.63
2018-06-02T10:05:07.677Z,6.30
2018-06-02T10:07:36.232Z,4.37
2018-06-02T10:10:04.103Z,7.10
2018-06-02T10:12:32.669Z,8.50
2018-06-02T10:15:01.291Z,5.30
2018-06-02T10:17:29.843Z,4.80
2018-06-02T10:19:58.406Z,4.40
2018-06-02T10:22:27.005Z,7.90
2018-06-02T10:24:55.559Z,5.30
2018-06-02T10:27:24.122Z,10.27
2018-06-02T10:29:52.680Z,6.43
2018-06-02T10:32:21.243Z,4.80
2018-06-02T10:34:49.802Z,5.63
2018-06-02T10:37:18.357Z,4.40
2018-06-02T10:39:46.914Z,5.20
2018-06-02T10:42:15.471Z,4.90
2018-06-02T10:44:44.119Z,5.77
2018-06-02T10:47:12.680Z,5.27
2018-06-02T10:49:41.233Z,4.90
2018-06-02T10:52:10.605Z,4.10
2018-06-02T10:54:39.182Z,13.37
2018-06-02T10:57:08.029Z,9.23
2018-06-02T10:59:36.591Z,10.03
2018-06-02T11:02:05.140Z,7.77
2018-06-02T11:04:33.721Z,7.07
2018-06-02T11:07:02.271Z,5.10
2018-06-02T11:09:30.476Z,4.70
2018-06-02T11:11:59.035Z,6.77
2018-06-02T11:14:29.318Z,9.20
2018-06-02T11:16:58.038Z,5.50
2018-06-02T11:19:26.640Z,5.63
2018-06-02T11:21:55.421Z,5.10
2018-06-02T11:24:23.999Z,7.50
2018-06-02T11:26:52.591Z,7.47
2018-06-02T11:29:21.144Z,5.07
2018-06-02T11:31:49.704Z,5.77
2018-06-02T11:34:18.261Z,5.10
2018-06-02T11:36:46.832Z,4.50
2018-06-02T11:39:15.410Z,5.07
2018-06-02T11:41:43.977Z,5.30
2018-06-02T11:44:12.594Z,4.60
2018-06-02T11:46:41.290Z,4.13
2018-06-02T11:49:09.859Z,4.20
2018-06-02T11:51:38.418Z,3.80
2018-06-02T11:54:06.987Z,4.53
2018-06-02T11:56:35.536Z,4.30
2018-06-02T11:59:04.108Z,4.97
2018-06-02T12:01:33.027Z,5.57
2018-06-02T12:04:01.699Z,5.17
2018-06-02T12:06:30.255Z,5.03
2018-06-02T12:08:58.804Z,4.80
2018-06-02T12:11:27.934Z,4.90
2018-06-02T12:13:56.573Z,4.43
2018-06-02T12:16:25.303Z,3.87
2018-06-02T12:18:53.863Z,4.50
2018-06-02T12:21:22.436Z,5.17
2018-06-02T12:23:50.986Z,4.30
2018-06-02T12:26:19.551Z,4.50
2018-06-02T12:28:48.121Z,4.37
2018-06-02T12:31:16.659Z,3.87
2018-06-02T12:33:46.408Z,4.10
2018-06-02T12:36:19.327Z,4.17
2018-06-02T12:38:47.887Z,4.13
2018-06-02T12:41:24.352Z,4.10
2018-06-02T12:43:52.912Z,4.43
2018-06-02T12:46:21.466Z,4.43
2018-06-02T12:48:50.026Z,4.53
2018-06-02T12:51:18.584Z,4.70
2018-06-02T12:53:47.165Z,3.87
2018-06-02T12:56:15.759Z,4.30
2018-06-02T12:58:44.358Z,4.70
2018-06-02T13:01:12.958Z,5.40
2018-06-02T13:03:41.552Z,4.60
2018-06-02T13:06:10.153Z,3.97
2018-06-02T13:08:38.763Z,3.93
2018-06-02T13:11:07.326Z,3.90
2018-06-02T13:13:35.881Z,4.17
2018-06-02T13:16:04.443Z,4.20
2018-06-02T13:18:32.996Z,4.13
2018-06-02T13:21:01.571Z,4.23
2018-06-02T13:23:30.171Z,3.80
2018-06-02T13:25:58.724Z,3.90
2018-06-02T13:28:27.277Z,3.87
2018-06-02T13:30:55.867Z,3.80
2018-06-02T13:33:24.457Z,4.33
2018-06-02T13:35:53.008Z,4.80
2018-06-02T13:38:21.554Z,4.30
2018-06-02T13:40:50.142Z,4.40
2018-06-02T13:43:18.720Z,5.17
2018-06-02T13:45:47.320Z,5.40
2018-06-02T13:48:15.872Z,4.40
2018-06-02T13:50:44.471Z,4.83
2018-06-02T13:53:12.696Z,4.87
2018-06-02T13:55:41.248Z,6.00
2018-06-02T13:58:09.814Z,4.33
2018-06-02T14:00:38.372Z,4.20
2018-06-02T14:03:06.967Z,4.07
2018-06-02T14:05:35.511Z,4.60
2018-06-02T14:08:04.080Z,4.50
2018-06-02T14:10:32.667Z,4.20
2018-06-02T14:13:01.230Z,3.47
2018-06-02T14:15:29.803Z,4.10
2018-06-02T14:17:58.367Z,4.10
2018-06-02T14:20:26.588Z,4.37
2018-06-02T14:22:55.181Z,3.67
2018-06-02T14:25:23.772Z,3.60
2018-06-02T14:27:52.481Z,3.70
2018-06-02T14:30:21.026Z,4.43
2018-06-02T14:32:49.574Z,4.00
2018-06-02T14:35:18.167Z,4.80
2018-06-02T14:37:46.719Z,4.47
2018-06-02T14:40:15.275Z,4.90
2018-06-02T14:42:43.875Z,4.73
2018-06-02T14:45:12.526Z,5.00
2018-06-02T14:47:41.084Z,5.17
2018-06-02T14:50:09.634Z,4.80
2018-06-02T14:52:39.182Z,4.90
2018-06-02T14:55:07.802Z,5.43
2018-06-02T14:57:36.515Z,5.60
2018-06-02T15:00:06.603Z,7.87
2018-06-02T15:02:35.307Z,5.60
2018-06-02T15:05:03.939Z,5.43
2018-06-02T15:07:32.497Z,5.20
2018-06-02T15:10:01.055Z,5.40
2018-06-02T15:12:29.614Z,5.00
2018-06-02T15:14:58.177Z,5.27
2018-06-02T15:17:26.793Z,6.27
2018-06-02T15:19:55.421Z,5.93
2018-06-02T15:22:23.999Z,5.03
2018-06-02T15:24:52.561Z,5.83
2018-06-02T15:27:21.141Z,5.63
2018-06-02T15:29:49.728Z,6.30
2018-06-02T15:32:18.285Z,5.67
2018-06-02T15:34:46.976Z,5.90
2018-06-02T15:37:16.582Z,5.53
2018-06-02T15:39:45.228Z,5.73
2018-06-02T15:42:14.963Z,5.83
2018-06-02T15:44:43.769Z,5.77
2018-06-02T15:47:13.318Z,5.70
2018-06-02T15:49:41.947Z,5.53
2018-06-02T15:52:10.513Z,5.70
2018-06-02T15:54:39.099Z,6.20
2018-06-02T15:57:07.700Z,6.33
2018-06-02T15:59:36.289Z,6.03
2018-06-02T16:02:04.487Z,6.17
2018-06-02T16:04:33.038Z,5.30
2018-06-02T16:07:01.598Z,5.53
2018-06-02T16:09:30.154Z,5.10
2018-06-02T16:11:58.378Z,5.27
2018-06-02T16:14:26.943Z,4.57
2018-06-02T16:16:55.499Z,4.00
2018-06-02T16:19:24.051Z,3.87
2018-06-02T16:21:52.635Z,4.33
2018-06-02T16:24:21.377Z,3.70
2018-06-02T16:26:50.419Z,5.00
2018-06-02T16:29:19.045Z,5.17
2018-06-02T16:31:47.598Z,4.30
2018-06-02T16:34:16.162Z,3.33
2018-06-02T16:36:44.503Z,4.30
2018-06-02T16:39:13.056Z,3.67
2018-06-02T16:41:41.615Z,3.53
2018-06-02T16:44:10.037Z,3.40
2018-06-02T16:46:38.653Z,4.30
2018-06-02T16:49:07.212Z,4.10
2018-06-02T16:51:35.769Z,3.47
2018-06-02T16:54:04.414Z,3.77
2018-06-02T16:56:32.959Z,4.57
2018-06-02T16:59:01.505Z,4.80
2018-06-02T17:01:30.102Z,4.77
2018-06-02T17:03:58.669Z,4.70
2018-06-02T17:06:27.278Z,7.33
2018-06-02T17:08:55.827Z,4.33
2018-06-02T17:11:24.391Z,4.67
2018-06-02T17:13:52.991Z,12.00
2018-06-02T17:16:21.578Z,15.63
2018-06-02T17:18:50.149Z,6.77
2018-06-02T17:21:18.732Z,10.40
2018-06-02T17:23:47.315Z,5.77
2018-06-02T17:26:16.816Z,4.00
2018-06-02T17:28:45.370Z,5.00
2018-06-02T17:31:13.939Z,6.23
2018-06-02T17:33:42.712Z,5.90
2018-06-02T17:36:11.289Z,5.40
2018-06-02T17:38:39.839Z,4.07
2018-06-02T17:41:07.707Z,4.27
2018-06-02T17:43:36.276Z,6.00
2018-06-02T17:46:05.785Z,8.00
2018-06-02T17:48:34.393Z,8.27
2018-06-02T17:51:02.967Z,5.87
2018-06-02T17:53:31.535Z,6.87
2018-06-02T17:56:00.113Z,6.17
2018-06-02T17:58:28.716Z,6.30
2018-06-02T18:00:57.289Z,5.67
2018-06-02T18:03:25.909Z,5.53
2018-06-02T18:05:54.525Z,6.97
2018-06-02T18:08:23.086Z,5.63
2018-06-02T18:10:51.642Z,6.20
2018-06-02T18:13:20.229Z,6.00
2018-06-02T18:15:48.568Z,5.93
2018-06-02T18:18:17.180Z,7.50
2018-06-02T18:20:45.745Z,5.30
2018-06-02T18:23:14.333Z,5.90
2018-06-02T18:25:42.923Z,18.37
2018-06-02T18:28:11.491Z,9.93
2018-06-02T18:30:40.077Z,8.27
2018-06-02T18:33:08.635Z,6.70
2018-06-02T18:35:37.204Z,5.80
2018-06-02T18:38:05.985Z,7.30
2018-06-02T18:40:34.565Z,6.33
2018-06-02T18:43:03.151Z,6.13
2018-06-02T18:45:31.719Z,6.33
2018-06-02T18:48:00.275Z,5.60
2018-06-02T18:50:28.833Z,6.03
2018-06-02T18:52:57.440Z,6.60
2018-06-02T18:55:26.010Z,6.20
2018-06-02T18:57:54.562Z,7.50
2018-06-02T19:00:23.128Z,5.50
2018-06-02T19:02:51.699Z,5.70
2018-06-02T19:05:20.265Z,7.00
2018-06-02T19:07:48.824Z,6.57
2018-06-02T19:10:17.401Z,6.47
2018-06-02T19:12:45.966Z,6.80
2018-06-02T19:15:14.566Z,7.23
2018-06-02T19:17:43.360Z,8.03
2018-06-02T19:20:11.927Z,7.70
2018-06-02T19:22:40.537Z,7.23
2018-06-02T19:25:09.275Z,6.93
2018-06-02T19:27:37.844Z,6.80
2018-06-02T19:30:06.697Z,6.97
2018-06-02T19:32:35.326Z,6.73
2018-06-02T19:35:03.888Z,6.53
2018-06-02T19:37:32.449Z,6.67
2018-06-02T19:40:02.082Z,6.00
2018-06-02T19:42:30.652Z,6.50
2018-06-02T19:44:59.212Z,7.53
2018-06-02T19:47:27.785Z,6.87
2018-06-02T19:49:56.362Z,9.80
2018-06-02T19:52:25.713Z,6.80
2018-06-02T19:54:54.275Z,6.70
2018-06-02T19:57:22.844Z,9.80
2018-06-02T20:00:28.336Z,7.03
2018-06-02T20:02:57.108Z,6.80
2018-06-02T20:05:25.899Z,6.70
2018-06-02T20:07:54.718Z,6.77
2018-06-02T20:10:23.669Z,6.00
2018-06-02T20:12:52.436Z,7.10
2018-06-02T20:15:21.243Z,6.43
2018-06-02T20:17:50.042Z,7.37
2018-06-02T20:20:18.826Z,7.10
2018-06-02T20:22:47.877Z,7.43
2018-06-02T20:25:16.637Z,7.63
2018-06-02T20:27:45.431Z,6.47
2018-06-02T20:30:14.247Z,7.07
2018-06-02T20:32:43.828Z,6.60
2018-06-02T20:35:12.606Z,7.37
2018-06-02T20:37:41.411Z,8.30
2018-06-02T20:40:10.198Z,7.67
2018-06-02T20:42:38.998Z,8.53
2018-06-02T20:45:07.736Z,8.23
2018-06-02T20:47:36.575Z,8.77
2018-06-02T20:50:05.415Z,8.80
2018-06-02T20:52:34.196Z,8.47
2018-06-02T20:55:02.986Z,8.97
2018-06-02T20:57:31.808Z,9.00
2018-06-02T21:00:00.576Z,8.63
2018-06-02T21:02:29.331Z,10.20
2018-06-02T21:04:58.129Z,11.93
2018-06-02T21:07:26.882Z,11.87
2018-06-02T21:09:55.709Z,11.00
2018-06-02T21:12:24.521Z,10.13
2018-06-02T21:14:53.311Z,10.03
2018-06-02T21:17:22.115Z,9.33
2018-06-02T21:19:50.935Z,9.20
2018-06-02T21:22:19.703Z,9.50
2018-06-02T21:24:48.487Z,7.23
2018-06-02T21:27:18.244Z,7.57
2018-06-02T21:29:47.455Z,7.50
2018-06-02T21:32:16.363Z,7.17
2018-06-02T21:34:45.787Z,7.57
2018-06-02T21:37:14.588Z,8.23
2018-06-02T21:39:43.463Z,7.40
2018-06-02T21:42:12.403Z,7.57
2018-06-02T21:44:41.220Z,6.47
2018-06-02T21:47:10.054Z,7.20
2018-06-02T21:49:38.809Z,7.20
2018-06-02T21:52:07.571Z,7.40
2018-06-02T21:54:36.357Z,6.73
2018-06-02T21:57:05.239Z,7.33
2018-06-02T21:59:34.120Z,7.83
2018-06-02T22:02:02.895Z,7.27
2018-06-02T22:04:32.717Z,7.00
2018-06-02T22:07:01.692Z,7.10
2018-06-02T22:09:30.614Z,7.00
2018-06-02T22:11:59.563Z,7.23
2018-06-02T22:14:28.592Z,7.40
2018-06-02T22:16:58.059Z,7.47
2018-06-02T22:19:26.955Z,7.40
2018-06-02T22:21:55.790Z,7.93
2018-06-02T22:24:24.602Z,8.17
2018-06-02T22:26:53.485Z,8.13
2018-06-02T22:29:22.362Z,7.83
2018-06-02T22:31:51.139Z,8.80
2018-06-02T22:34:19.944Z,8.30
2018-06-02T22:36:48.838Z,8.40
2018-06-02T22:39:17.696Z,8.50
2018-06-02T22:41:46.525Z,7.67
2018-06-02T22:44:15.380Z,8.20
2018-06-02T22:46:44.398Z,8.80
2018-06-02T22:49:13.247Z,7.33
2018-06-02T22:52:13.970Z,8.50
2018-06-02T22:54:42.998Z,8.53
2018-06-02T22:57:12.032Z,8.00
2018-06-02T22:59:40.945Z,8.50
2018-06-02T23:02:09.750Z,8.33
2018-06-02T23:04:38.765Z,8.10
2018-06-02T23:07:07.723Z,8.10
2018-06-02T23:09:36.656Z,7.93
2018-06-02T23:12:05.480Z,8.47
2018-06-02T23:14:34.266Z,8.23
2018-06-02T23:17:03.098Z,8.90
2018-06-02T23:19:31.955Z,8.63
2018-06-02T23:22:00.890Z,8.87
2018-06-02T23:24:29.679Z,8.20
2018-06-02T23:26:58.467Z,8.27
2018-06-02T23:29:27.691Z,7.97
2018-06-02T23:31:56.454Z,8.03
2018-06-02T23:34:25.286Z,7.83
2018-06-02T23:36:54.051Z,8.10
2018-06-02T23:39:22.842Z,8.00
2018-06-02T23:41:51.651Z,8.43
2018-06-02T23:44:20.442Z,8.23
2018-06-02T23:46:49.226Z,8.50
2018-06-02T23:49:18.046Z,7.90
2018-06-02T23:51:46.839Z,8.47
2018-06-02T23:54:15.918Z,8.60
2018-06-02T23:56:44.721Z,8.47
2018-06-02T23:59:13.876Z,7.57
